Time;durP1;ratioP1;P1;durP2;ratioP2;P2;SDS_P1;SDS_P2;PMS_P1;PMS_P2;Temp;Humidity;BMP_temperature;BMP_pressure;BME280_temperature;BME280_humidity;BME280_pressure;Samples;Min_cycle;Max_cycle;Signal;HPM_P1;HPM_P2
2023/05/04 00:00:28;;;;;;;7.15;6.40;;;12.20;61.10;;;;;;5072868;28;20111;-76
2023/05/04 00:02:53;;;;;;;7.00;6.20;;;12.20;61.20;;;;;;5072883;28;20023;-79
2023/05/04 00:05:19;;;;;;;7.55;6.75;;;12.20;61.40;;;;;;5072687;28;20035;-78
2023/05/04 00:07:45;;;;;;;7.78;6.63;;;12.20;61.70;;;;;;5072790;28;20525;-79
2023/05/04 00:10:10;;;;;;;8.07;6.50;;;12.10;61.80;;;;;;5075234;28;20070;-78
2023/05/04 00:12:36;;;;;;;8.13;6.50;;;12.10;62.00;;;;;;5076909;28;20028;-79
2023/05/04 00:15:03;;;;;;;8.88;7.13;;;12.00;62.10;;;;;;5058877;28;20025;-78
2023/05/04 00:17:28;;;;;;;7.93;7.05;;;12.00;62.50;;;;;;5077001;28;20091;-78
2023/05/04 00:19:54;;;;;;;8.60;7.38;;;12.00;62.50;;;;;;5076275;28;20123;-77
2023/05/04 00:22:19;;;;;;;10.73;7.47;;;12.00;62.70;;;;;;5076616;28;20032;-79
2023/05/04 00:24:45;;;;;;;8.50;7.25;;;11.90;62.80;;;;;;5076602;28;20025;-78
2023/05/04 00:27:11;;;;;;;8.25;7.15;;;11.90;62.80;;;;;;5076720;28;20044;-76
2023/05/04 00:29:37;;;;;;;10.27;8.05;;;11.90;63.10;;;;;;5076493;28;20674;-78
2023/05/04 00:32:02;;;;;;;7.30;6.60;;;11.90;63.20;;;;;;5076490;28;20056;-76
2023/05/04 00:34:29;;;;;;;10.55;8.07;;;11.90;62.90;;;;;;5076491;28;20023;-76
2023/05/04 00:36:55;;;;;;;9.98;7.70;;;11.90;63.10;;;;;;5076252;28;20036;-76
2023/05/04 00:39:20;;;;;;;12.02;8.55;;;11.80;63.20;;;;;;5076355;28;20044;-76
2023/05/04 00:41:46;;;;;;;10.57;9.48;;;11.80;63.30;;;;;;5076175;28;20473;-78
2023/05/04 00:44:12;;;;;;;9.70;8.60;;;11.80;63.70;;;;;;5058266;28;20090;-75
2023/05/04 00:46:37;;;;;;;10.38;8.57;;;11.70;64.10;;;;;;5075964;28;20024;-73
2023/05/04 00:49:04;;;;;;;10.98;8.82;;;11.70;64.20;;;;;;5076001;28;20043;-77
2023/05/04 00:51:30;;;;;;;11.07;8.57;;;11.70;64.10;;;;;;5075958;28;20017;-76
2023/05/04 00:53:56;;;;;;;8.80;7.90;;;11.70;64.10;;;;;;5075914;28;20036;-77
2023/05/04 00:56:23;;;;;;;11.23;8.45;;;11.70;64.40;;;;;;5075923;28;20017;-74
2023/05/04 00:58:53;;;;;;;9.10;7.63;;;11.70;64.30;;;;;;5075834;28;20025;-77
2023/05/04 01:01:21;;;;;;;9.32;7.93;;;11.70;64.30;;;;;;5075488;28;20094;-79
2023/05/04 01:03:52;;;;;;;12.13;8.90;;;11.70;64.60;;;;;;5076116;28;20024;-77
2023/05/04 01:06:44;;;;;;;9.65;8.43;;;11.70;64.70;;;;;;5076146;28;20303;-76
2023/05/04 01:09:38;;;;;;;8.32;7.07;;;11.70;64.50;;;;;;5044839;28;20045;-77
2023/05/04 01:12:34;;;;;;;12.75;8.82;;;11.70;64.70;;;;;;5075975;28;20053;-77
2023/05/04 01:15:00;;;;;;;;;;;11.60;64.90;;;;;;5069994;28;20598;-75
2023/05/04 01:17:25;;;;;;;;;;;11.60;65.20;;;;;;5076208;28;19908;-79
2023/05/04 01:19:52;;;;;;;10.52;8.52;;;11.60;65.50;;;;;;5075567;28;19911;-79
2023/05/04 01:22:19;;;;;;;10.07;8.68;;;11.50;65.40;;;;;;5074240;28;20031;-78
2023/05/04 01:24:44;;;;;;;11.93;8.93;;;11.50;65.50;;;;;;5075436;28;20024;-77
2023/05/04 01:27:25;;;;;;;11.60;9.20;;;11.50;65.60;;;;;;5075436;28;20465;-79
2023/05/04 01:30:01;;;;;;;10.25;8.95;;;11.50;65.70;;;;;;5075306;28;20183;-78
2023/05/04 01:32:28;;;;;;;11.65;9.45;;;11.40;66.00;;;;;;5075349;28;20051;-73
2023/05/04 01:34:54;;;;;;;14.88;11.38;;;11.40;66.20;;;;;;5075311;28;20032;-77
2023/05/04 01:37:20;;;;;;;13.85;11.38;;;11.30;66.80;;;;;;5075163;28;20048;-79
2023/05/04 01:39:45;;;;;;;14.85;11.63;;;11.30;66.90;;;;;;5075285;28;20539;-78
2023/05/04 01:42:11;;;;;;;12.20;10.00;;;11.20;67.20;;;;;;5075165;28;20056;-78
2023/05/04 01:44:36;;;;;;;13.43;10.30;;;11.20;67.10;;;;;;5075054;28;20056;-78
2023/05/04 01:47:02;;;;;;;12.93;11.52;;;11.20;67.20;;;;;;5057104;28;20027;-78
2023/05/04 01:49:28;;;;;;;14.32;11.60;;;11.20;67.30;;;;;;5074875;28;20040;-78
2023/05/04 01:51:53;;;;;;;18.27;12.32;;;11.30;67.10;;;;;;5074995;28;20033;-79
2023/05/04 01:54:19;;;;;;;13.20;11.63;;;11.30;67.30;;;;;;5074846;28;20503;-78
2023/05/04 01:56:44;;;;;;;13.85;10.93;;;11.10;67.60;;;;;;5077457;28;20024;-77
2023/05/04 01:59:10;;;;;;;12.73;11.35;;;11.10;67.80;;;;;;5074884;28;20017;-78
2023/05/04 02:01:36;;;;;;;14.68;11.85;;;11.10;68.00;;;;;;5075058;28;20021;-77
2023/05/04 02:04:01;;;;;;;14.82;12.18;;;11.00;68.00;;;;;;5075063;28;20061;-78
2023/05/04 02:06:27;;;;;;;14.93;12.20;;;11.00;68.50;;;;;;5074983;28;20028;-78
2023/05/04 02:08:52;;;;;;;15.07;11.93;;;10.90;68.80;;;;;;5075075;28;20060;-78
2023/05/04 02:11:18;;;;;;;15.90;12.35;;;10.90;68.70;;;;;;5075123;28;20145;-78
2023/05/04 02:13:43;;;;;;;18.30;13.50;;;10.90;69.20;;;;;;5087438;28;20110;-77
2023/05/04 02:16:09;;;;;;;15.30;12.32;;;10.80;69.50;;;;;;5084188;28;20100;-77
2023/05/04 02:18:34;;;;;;;13.32;11.85;;;10.80;69.50;;;;;;5074378;28;20020;-78
2023/05/04 02:21:00;;;;;;;13.93;11.70;;;10.90;69.50;;;;;;5074271;28;20074;-78
2023/05/04 02:23:26;;;;;;;17.15;13.93;;;10.90;69.70;;;;;;5074331;28;20024;-77
2023/05/04 02:25:53;;;;;;;17.92;12.65;;;10.80;69.70;;;;;;5074257;28;20376;-77
2023/05/04 02:28:18;;;;;;;17.20;13.52;;;10.80;69.60;;;;;;5074157;28;20476;-77
2023/05/04 02:30:44;;;;;;;14.35;12.57;;;10.80;69.70;;;;;;5074165;28;20017;-76
2023/05/04 02:33:09;;;;;;;18.92;13.50;;;10.80;69.90;;;;;;5073867;28;20119;-77
2023/05/04 02:35:35;;;;;;;18.95;14.60;;;10.80;69.90;;;;;;5074156;28;20035;-77
2023/05/04 02:38:01;;;;;;;18.40;14.30;;;10.80;69.90;;;;;;5073776;28;20045;-77
2023/05/04 02:40:26;;;;;;;18.00;13.25;;;10.70;70.20;;;;;;5073870;28;20025;-79
2023/05/04 02:42:52;;;;;;;19.38;14.52;;;10.70;70.40;;;;;;5073994;28;20064;-79
2023/05/04 02:45:17;;;;;;;20.23;13.95;;;10.60;70.50;;;;;;5073838;28;20028;-79
2023/05/04 02:47:43;;;;;;;18.83;14.23;;;10.60;70.90;;;;;;5073709;28;20094;-77
2023/05/04 02:50:09;;;;;;;17.58;13.73;;;10.50;71.20;;;;;;5055755;28;20020;-77
2023/05/04 02:52:34;;;;;;;15.90;13.23;;;10.50;71.30;;;;;;5073790;28;20035;-76
2023/05/04 02:55:01;;;;;;;17.90;14.70;;;10.50;71.20;;;;;;5073637;28;20020;-77
2023/05/04 02:57:27;;;;;;;17.42;14.27;;;10.60;71.10;;;;;;5073768;28;20454;-78
2023/05/04 02:59:53;;;;;;;21.35;14.27;;;10.60;71.50;;;;;;5073715;28;20071;-78
2023/05/04 03:02:18;;;;;;;18.52;14.35;;;10.60;71.40;;;;;;5073903;28;20028;-78
2023/05/04 03:04:44;;;;;;;18.95;15.30;;;10.60;71.40;;;;;;5073653;28;20024;-77
2023/05/04 03:07:10;;;;;;;19.27;15.68;;;10.60;71.50;;;;;;5055584;28;20064;-77
2023/05/04 03:09:36;;;;;;;18.05;14.35;;;10.60;71.60;;;;;;5073348;28;20021;-79
2023/05/04 03:12:02;;;;;;;18.27;13.68;;;10.60;71.70;;;;;;5073433;28;20086;-79
2023/05/04 03:14:28;;;;;;;19.25;15.05;;;10.60;71.60;;;;;;5073418;28;20028;-80
2023/05/04 03:16:53;;;;;;;18.67;15.32;;;10.60;71.70;;;;;;5073281;28;20033;-79
2023/05/04 03:19:20;;;;;;;16.30;14.38;;;10.60;71.70;;;;;;5073375;28;20060;-79
2023/05/04 03:21:46;;;;;;;21.95;16.70;;;10.50;71.80;;;;;;5073355;28;20028;-79
2023/05/04 03:24:12;;;;;;;19.50;15.40;;;10.50;72.00;;;;;;5071913;28;20031;-79
2023/05/04 03:26:38;;;;;;;16.77;14.50;;;10.50;72.10;;;;;;5073197;28;20027;-77
2023/05/04 03:29:03;;;;;;;16.85;14.65;;;10.50;72.00;;;;;;5073181;28;20035;-78
2023/05/04 03:31:29;;;;;;;21.90;16.08;;;10.50;72.00;;;;;;5073247;28;20023;-79
2023/05/04 03:33:55;;;;;;;17.90;15.43;;;10.40;72.30;;;;;;5073134;28;20111;-78
2023/05/04 03:36:20;;;;;;;19.52;15.60;;;10.50;72.30;;;;;;5073112;28;20067;-76
2023/05/04 03:38:46;;;;;;;28.95;16.58;;;10.50;72.30;;;;;;5072924;28;20500;-79
2023/05/04 03:41:11;;;;;;;18.77;15.93;;;10.50;72.60;;;;;;5072900;28;20032;-78
2023/05/04 03:43:37;;;;;;;23.17;16.77;;;10.50;72.50;;;;;;5073057;28;20056;-77
2023/05/04 03:46:03;;;;;;;20.08;15.45;;;10.50;72.40;;;;;;5072180;28;20099;-78
2023/05/04 03:48:28;;;;;;;18.27;15.82;;;10.40;72.40;;;;;;5072976;28;20542;-80
2023/05/04 03:50:54;;;;;;;20.65;16.33;;;10.40;72.60;;;;;;5073080;28;20060;-79
2023/05/04 03:53:19;;;;;;;20.35;16.63;;;10.30;72.70;;;;;;5073024;28;20032;-79
2023/05/04 03:55:45;;;;;;;23.42;18.63;;;10.30;72.90;;;;;;5072982;28;20033;-79
2023/05/04 03:58:14;;;;;;;22.92;17.95;;;10.20;73.30;;;;;;5054903;28;20020;-76
2023/05/04 04:00:40;;;;;;;27.25;19.38;;;10.10;74.00;;;;;;5054824;28;20029;-79
2023/05/04 04:03:06;;;;;;;31.58;20.25;;;10.00;74.30;;;;;;5072875;28;20028;-74
2023/05/04 04:05:31;;;;;;;23.88;19.80;;;10.00;74.70;;;;;;5073093;28;20020;-76
2023/05/04 04:07:57;;;;;;;23.80;18.88;;;9.90;75.00;;;;;;5073403;28;20037;-78
2023/05/04 04:10:22;;;;;;;22.30;19.13;;;9.80;75.10;;;;;;5073400;28;20106;-79
2023/05/04 04:12:48;;;;;;;23.25;19.05;;;9.70;75.30;;;;;;5072965;28;20050;-78
2023/05/04 04:15:14;;;;;;;25.63;19.40;;;9.60;75.60;;;;;;5072761;28;20074;-73
2023/05/04 04:17:40;;;;;;;26.90;19.50;;;9.70;76.00;;;;;;5072658;28;20078;-74
2023/05/04 04:20:06;;;;;;;24.98;19.42;;;9.70;75.80;;;;;;5072522;28;20055;-75
2023/05/04 04:22:31;;;;;;;25.90;19.85;;;9.70;75.60;;;;;;5072123;28;20028;-74
2023/05/04 04:24:57;;;;;;;25.70;20.13;;;9.80;75.80;;;;;;5072569;28;20020;-72
2023/05/04 04:27:22;;;;;;;26.67;19.05;;;9.80;75.80;;;;;;5072321;28;20024;-73
2023/05/04 04:29:48;;;;;;;24.77;18.42;;;9.90;75.80;;;;;;5072399;28;20032;-72
2023/05/04 04:32:14;;;;;;;22.20;17.75;;;9.90;75.50;;;;;;5072491;28;20024;-73
2023/05/04 04:34:40;;;;;;;20.00;17.08;;;10.00;75.20;;;;;;5072475;28;20021;-72
2023/05/04 04:37:05;;;;;;;23.13;17.63;;;10.10;75.10;;;;;;5072171;28;20124;-72
2023/05/04 04:39:31;;;;;;;23.35;17.52;;;10.20;74.70;;;;;;5072568;28;20028;-72
2023/05/04 04:41:57;;;;;;;22.33;18.08;;;10.30;74.40;;;;;;5072744;28;20027;-74
2023/05/04 04:44:22;;;;;;;23.52;19.45;;;10.40;73.90;;;;;;5073643;28;20024;-73
2023/05/04 04:46:48;;;;;;;24.45;18.80;;;10.40;73.60;;;;;;5073096;28;20058;-73
2023/05/04 04:49:16;;;;;;;23.58;19.27;;;10.40;73.30;;;;;;5072266;28;20039;-72
2023/05/04 04:51:42;;;;;;;23.55;19.25;;;10.40;73.30;;;;;;5072267;28;20028;-73
2023/05/04 04:54:08;;;;;;;22.13;18.70;;;10.40;73.40;;;;;;5072288;28;20488;-74
2023/05/04 04:56:33;;;;;;;28.70;20.10;;;10.50;73.50;;;;;;5071939;28;20052;-73
2023/05/04 04:58:59;;;;;;;24.15;19.90;;;10.60;73.20;;;;;;5055894;28;20079;-73
2023/05/04 05:01:25;;;;;;;24.63;19.05;;;10.70;73.00;;;;;;5055442;28;20035;-73
2023/05/04 05:03:50;;;;;;;27.17;18.90;;;10.70;72.60;;;;;;5055600;28;20032;-73
2023/05/04 05:06:16;;;;;;;23.15;18.27;;;10.80;72.40;;;;;;5055606;28;20032;-73
2023/05/04 05:08:42;;;;;;;25.45;19.30;;;10.80;72.20;;;;;;5055542;28;20547;-72
2023/05/04 05:11:09;;;;;;;22.25;18.67;;;10.90;71.90;;;;;;5055527;28;20017;-73
2023/05/04 05:13:34;;;;;;;22.00;17.52;;;11.00;71.60;;;;;;5055404;28;20075;-72
2023/05/04 05:16:00;;;;;;;21.25;16.98;;;11.10;71.50;;;;;;5055322;28;20017;-73
2023/05/04 05:18:26;;;;;;;21.90;17.63;;;11.20;70.90;;;;;;5055345;28;20025;-73
2023/05/04 05:20:51;;;;;;;21.25;16.27;;;11.20;70.60;;;;;;5055284;28;20025;-72
2023/05/04 05:23:19;;;;;;;22.35;16.77;;;11.40;70.20;;;;;;5055284;28;20021;-73
2023/05/04 05:25:45;;;;;;;22.55;17.10;;;11.50;69.90;;;;;;5055145;28;20029;-74
2023/05/04 05:28:12;;;;;;;21.17;16.40;;;11.60;69.40;;;;;;5054881;28;20043;-75
2023/05/04 05:30:38;;;;;;;20.27;16.83;;;11.70;68.90;;;;;;5054285;28;20021;-73
2023/05/04 05:33:04;;;;;;;20.38;17.52;;;11.80;68.50;;;;;;5054882;28;20545;-73
2023/05/04 05:35:30;;;;;;;20.48;14.82;;;11.90;68.20;;;;;;5054597;28;20020;-74
2023/05/04 05:37:57;;;;;;;17.52;13.48;;;12.00;68.00;;;;;;5054626;28;20057;-73
2023/05/04 05:40:22;;;;;;;23.55;15.05;;;12.10;67.60;;;;;;5054974;28;20079;-72
2023/05/04 05:42:48;;;;;;;21.23;16.35;;;12.20;67.20;;;;;;5055016;28;20489;-72
2023/05/04 05:45:14;;;;;;;23.80;15.77;;;12.20;67.20;;;;;;5054818;28;20425;-72
2023/05/04 05:47:40;;;;;;;21.00;14.98;;;12.30;66.80;;;;;;5054843;28;20033;-73
2023/05/04 05:50:07;;;;;;;18.42;13.95;;;12.40;66.50;;;;;;5054788;28;20128;-76
2023/05/04 05:52:32;;;;;;;20.08;14.80;;;12.50;66.40;;;;;;5055204;28;20075;-72
2023/05/04 05:54:58;;;;;;;19.65;13.88;;;12.60;65.90;;;;;;5054882;28;20024;-77
2023/05/04 05:57:23;;;;;;;14.88;12.00;;;12.70;65.40;;;;;;5054765;28;20036;-75
2023/05/04 05:59:49;;;;;;;17.77;12.77;;;12.80;65.10;;;;;;5054858;28;20017;-74
2023/05/04 06:02:15;;;;;;;15.98;12.68;;;12.90;64.80;;;;;;5036840;28;20013;-75
2023/05/04 06:04:41;;;;;;;13.27;11.88;;;13.00;64.40;;;;;;5054654;28;20025;-74
2023/05/04 06:07:07;;;;;;;14.82;11.38;;;13.10;63.90;;;;;;5054136;28;20028;-74
2023/05/04 06:09:32;;;;;;;12.45;9.85;;;13.20;63.30;;;;;;5054241;28;20466;-74
2023/05/04 06:11:58;;;;;;;14.30;11.20;;;13.30;62.60;;;;;;5054493;28;20458;-75
2023/05/04 06:14:23;;;;;;;11.07;9.50;;;13.50;61.20;;;;;;5054233;28;20036;-75
2023/05/04 06:16:49;;;;;;;12.95;9.57;;;13.50;60.50;;;;;;5054040;28;20027;-73
2023/05/04 06:19:15;;;;;;;11.38;9.15;;;13.60;60.70;;;;;;5054217;28;20017;-75
2023/05/04 06:21:40;;;;;;;11.65;9.10;;;13.70;60.40;;;;;;5054361;28;20052;-80
2023/05/04 06:24:06;;;;;;;10.77;9.10;;;13.90;61.00;;;;;;5054241;28;20036;-78
2023/05/04 06:26:31;;;;;;;9.77;7.95;;;14.00;59.40;;;;;;5054022;28;20040;-74
2023/05/04 06:28:57;;;;;;;12.73;8.95;;;14.10;59.10;;;;;;5054214;28;20040;-77
2023/05/04 06:31:23;;;;;;;11.38;8.40;;;14.30;58.70;;;;;;5054147;28;20027;-77
2023/05/04 06:33:49;;;;;;;10.95;7.82;;;14.30;57.90;;;;;;5054117;28;20473;-73
2023/05/04 06:36:15;;;;;;;10.10;6.80;;;14.40;57.20;;;;;;5036253;28;20071;-78
2023/05/04 06:38:40;;;;;;;8.88;7.57;;;14.60;57.40;;;;;;5036000;28;20121;-80
2023/05/04 06:41:06;;;;;;;9.10;6.95;;;14.70;56.10;;;;;;5036182;28;20532;-77
2023/05/04 06:43:32;;;;;;;7.90;6.47;;;14.80;55.40;;;;;;5054185;28;20024;-76
2023/05/04 06:46:04;;;;;;;9.10;5.90;;;14.90;55.00;;;;;;5054703;28;20025;-83
2023/05/04 06:48:30;;;;;;;10.05;6.10;;;15.00;54.60;;;;;;5037535;28;20037;-77
2023/05/04 06:50:56;;;;;;;28.25;8.23;;;15.10;54.60;;;;;;5054946;28;20025;-78
2023/05/04 06:53:22;;;;;;;9.50;5.43;;;15.30;58.10;;;;;;5055205;28;20051;-74
2023/05/04 06:55:47;;;;;;;10.50;4.85;;;15.50;58.20;;;;;;5055265;28;20535;-76
2023/05/04 06:58:16;;;;;;;8.07;4.63;;;15.80;57.40;;;;;;5054063;28;20037;-73
2023/05/04 07:00:41;;;;;;;9.45;5.47;;;16.10;54.90;;;;;;5055616;28;20056;-75
2023/05/04 07:03:10;;;;;;;4.90;4.38;;;16.40;52.00;;;;;;5056856;28;20059;-75
2023/05/04 07:05:36;;;;;;;8.40;5.15;;;16.60;50.40;;;;;;5038088;28;20028;-73
2023/05/04 07:08:02;;;;;;;8.32;5.47;;;16.80;50.80;;;;;;5055608;28;20112;-74
2023/05/04 07:10:28;;;;;;;7.10;4.82;;;17.00;50.50;;;;;;5054804;28;20021;-74
2023/05/04 07:12:53;;;;;;;8.13;4.65;;;17.20;48.90;;;;;;5054675;28;20083;-74
2023/05/04 07:15:19;;;;;;;6.57;4.45;;;17.30;48.00;;;;;;5036936;28;20029;-73
2023/05/04 07:17:46;;;;;;;4.90;3.45;;;17.50;47.50;;;;;;5037274;28;20021;-73
2023/05/04 07:20:12;;;;;;;5.20;3.42;;;17.60;47.10;;;;;;5053620;28;20029;-73
2023/05/04 07:22:38;;;;;;;4.10;3.20;;;17.80;46.50;;;;;;5054027;28;20024;-74
2023/05/04 07:25:04;;;;;;;4.50;3.47;;;17.90;46.00;;;;;;5053975;28;20474;-73
2023/05/04 07:27:30;;;;;;;4.78;3.72;;;17.90;44.70;;;;;;5054015;28;20503;-74
2023/05/04 07:29:56;;;;;;;5.95;3.65;;;18.10;45.00;;;;;;5053435;28;20032;-73
2023/05/04 07:32:22;;;;;;;5.75;3.17;;;18.00;43.20;;;;;;5053129;28;20052;-73
2023/05/04 07:34:47;;;;;;;4.32;3.20;;;17.70;44.50;;;;;;5034865;28;20029;-73
2023/05/04 07:37:14;;;;;;;3.95;3.05;;;17.60;44.40;;;;;;5053055;28;20044;-73
2023/05/04 07:39:40;;;;;;;5.90;3.75;;;17.60;44.90;;;;;;5052837;28;20369;-73
2023/05/04 07:42:06;;;;;;;3.67;3.22;;;17.70;44.70;;;;;;5052391;28;20037;-73
2023/05/04 07:44:31;;;;;;;6.03;3.95;;;17.80;45.10;;;;;;5052535;28;20369;-75
2023/05/04 07:46:58;;;;;;;4.97;3.30;;;17.90;44.30;;;;;;5052424;28;20029;-74
2023/05/04 07:49:24;;;;;;;4.32;3.72;;;18.00;44.10;;;;;;5052283;28;20032;-73
2023/05/04 07:51:50;;;;;;;3.80;3.33;;;18.00;43.70;;;;;;5052501;28;20025;-74
2023/05/04 07:54:16;;;;;;;5.65;2.78;;;18.00;44.70;;;;;;5052119;28;20021;-72
2023/05/04 07:56:42;;;;;;;6.47;3.40;;;18.10;44.70;;;;;;5052629;28;20067;-73
2023/05/04 07:59:07;;;;;;;4.28;3.10;;;18.20;42.60;;;;;;5052856;28;20029;-74
2023/05/04 08:01:33;;;;;;;4.05;3.08;;;18.20;43.30;;;;;;5052522;28;20021;-73
2023/05/04 08:03:59;;;;;;;4.28;2.88;;;18.10;43.30;;;;;;5035216;28;20428;-77
2023/05/04 08:06:25;;;;;;;4.38;3.13;;;18.00;43.80;;;;;;5036609;28;20104;-75
2023/05/04 08:08:50;;;;;;;3.83;3.42;;;18.20;43.20;;;;;;5052598;28;20036;-76
2023/05/04 08:11:16;;;;;;;3.78;3.17;;;18.20;43.10;;;;;;5052616;28;20032;-76
2023/05/04 08:13:45;;;;;;;2.63;2.30;;;18.20;42.90;;;;;;5052919;28;20025;-77
2023/05/04 08:16:12;;;;;;;3.42;2.83;;;18.30;43.60;;;;;;5035613;28;20438;-77
2023/05/04 08:18:37;;;;;;;3.95;2.92;;;18.50;43.10;;;;;;5053057;28;20450;-83
2023/05/04 08:21:03;;;;;;;3.10;2.80;;;18.60;42.00;;;;;;5052362;28;20017;-82
2023/05/04 08:23:29;;;;;;;4.10;3.28;;;18.50;41.80;;;;;;5052403;28;20048;-82
2023/05/04 08:25:55;;;;;;;6.68;3.20;;;18.50;42.60;;;;;;5052535;28;20096;-81
2023/05/04 08:28:21;;;;;;;3.97;2.67;;;18.50;42.60;;;;;;5034458;28;20502;-73
2023/05/04 08:30:46;;;;;;;3.70;2.78;;;18.50;43.50;;;;;;5044821;28;20036;-75
2023/05/04 08:33:12;;;;;;;3.17;2.88;;;18.60;41.90;;;;;;5056357;28;20075;-79
2023/05/04 08:35:37;;;;;;;3.03;2.63;;;18.60;42.20;;;;;;5056077;28;20404;-79
2023/05/04 08:38:03;;;;;;;3.17;2.58;;;18.60;42.40;;;;;;5055909;28;20071;-81
2023/05/04 08:40:29;;;;;;;2.83;2.47;;;18.50;40.30;;;;;;5056304;28;20055;-75
2023/05/04 08:42:55;;;;;;;5.32;2.72;;;18.50;41.40;;;;;;5055978;28;20046;-78
2023/05/04 08:45:21;;;;;;;6.05;2.85;;;18.50;42.30;;;;;;5055918;28;20120;-75
2023/05/04 08:47:47;;;;;;;2.10;1.90;;;18.50;42.70;;;;;;5055832;28;20111;-75
2023/05/04 08:50:12;;;;;;;3.17;2.35;;;18.60;42.20;;;;;;5055802;28;20028;-79
2023/05/04 08:52:43;;;;;;;5.93;3.20;;;18.70;41.60;;;;;;5037544;28;20025;-75
2023/05/04 08:55:10;;;;;;;4.13;2.70;;;18.60;40.80;;;;;;5055332;28;20469;-74
2023/05/04 08:57:36;;;;;;;3.47;2.30;;;18.70;41.10;;;;;;5055539;28;20084;-72
2023/05/04 09:00:04;;;;;;;2.33;2.13;;;18.60;40.10;;;;;;5055659;28;20032;-73
2023/05/04 09:02:32;;;;;;;4.47;2.38;;;18.70;41.50;;;;;;5055603;28;20025;-73
2023/05/04 09:05:00;;;;;;;5.90;2.30;;;18.80;41.20;;;;;;5055627;28;20381;-72
2023/05/04 09:07:25;;;;;;;5.05;2.13;;;18.90;40.90;;;;;;5055355;28;20032;-72
2023/05/04 09:09:51;;;;;;;3.38;2.30;;;19.10;40.40;;;;;;5037335;28;20024;-75
2023/05/04 09:12:18;;;;;;;2.38;2.03;;;19.20;39.10;;;;;;5055415;28;20087;-76
2023/05/04 09:14:45;;;;;;;4.93;2.10;;;19.20;39.50;;;;;;5055254;28;20040;-73
2023/05/04 09:17:24;;;;;;;4.20;1.75;;;19.10;37.90;;;;;;5055199;28;20026;-73
2023/05/04 09:19:59;;;;;;;3.50;2.40;;;19.20;39.00;;;;;;5055003;28;20025;-78
2023/05/04 09:22:26;;;;;;;2.28;2.05;;;19.10;38.50;;;;;;5054440;28;20031;-74
2023/05/04 09:24:52;;;;;;;2.45;1.77;;;19.20;38.90;;;;;;5055163;28;20067;-76
2023/05/04 09:27:18;;;;;;;2.28;2.08;;;19.40;40.00;;;;;;5055034;28;20025;-75
2023/05/04 09:29:52;;;;;;;3.75;2.10;;;19.60;39.10;;;;;;5054878;28;20037;-79
2023/05/04 09:32:17;;;;;;;4.97;2.25;;;19.70;38.20;;;;;;5055176;28;20029;-75
2023/05/04 09:34:53;;;;;;;2.17;1.70;;;19.80;37.80;;;;;;5054935;28;20427;-73
2023/05/04 09:37:20;;;;;;;2.53;1.60;;;20.10;37.80;;;;;;5054606;28;20037;-75
2023/05/04 09:39:52;;;;;;;4.80;1.95;;;20.20;37.30;;;;;;5055052;28;20047;-74
2023/05/04 09:42:19;;;;;;;2.25;2.05;;;20.30;36.10;;;;;;5053779;28;20059;-76
2023/05/04 09:44:45;;;;;;;12.02;3.88;;;20.20;35.70;;;;;;5055126;28;20419;-77
2023/05/04 09:47:11;;;;;;;235.77;47.60;;;20.20;36.30;;;;;;5054800;28;20112;-74
2023/05/04 09:49:37;;;;;;;71.00;15.80;;;20.50;37.60;;;;;;5036621;28;20029;-76
2023/05/04 09:52:04;;;;;;;14.40;4.40;;;20.70;37.00;;;;;;5054625;28;20118;-77
2023/05/04 09:54:34;;;;;;;4.20;2.15;;;20.90;37.30;;;;;;5054689;28;20428;-74
2023/05/04 09:57:13;;;;;;;4.60;2.28;;;21.00;36.20;;;;;;5054708;28;20104;-74
2023/05/04 09:59:39;;;;;;;3.65;2.58;;;21.20;36.20;;;;;;5036783;28;20033;-80
2023/05/04 10:02:06;;;;;;;3.05;2.10;;;21.30;36.50;;;;;;5054553;28;20020;-79
2023/05/04 10:04:33;;;;;;;6.50;2.88;;;21.50;36.00;;;;;;5054546;28;20033;-75
2023/05/04 10:07:02;;;;;;;5.65;1.98;;;21.60;35.60;;;;;;5053796;28;20029;-78
2023/05/04 10:09:29;;;;;;;4.25;1.77;;;21.80;35.60;;;;;;5053760;28;20033;-75
2023/05/04 10:12:00;;;;;;;4.25;2.05;;;21.90;35.30;;;;;;5036103;28;20025;-75
2023/05/04 10:14:35;;;;;;;3.90;2.47;;;22.10;35.00;;;;;;5054142;28;20504;-76
2023/05/04 10:17:16;;;;;;;3.85;2.35;;;22.20;35.30;;;;;;5053835;28;20021;-76
2023/05/04 10:20:10;;;;;;;3.65;2.00;;;22.30;34.50;;;;;;5054295;28;20065;-80
2023/05/04 10:22:55;;;;;;;3.58;2.13;;;22.30;34.10;;;;;;5052720;28;20025;-78
2023/05/04 10:25:33;;;;;;;2.10;1.80;;;22.30;33.70;;;;;;5052891;28;20017;-82
2023/05/04 10:28:26;;;;;;;2.70;1.63;;;22.50;34.50;;;;;;5054277;28;20033;-82
2023/05/04 10:30:59;;;;;;;4.93;1.73;;;22.60;32.10;;;;;;5036059;28;20021;-80
2023/05/04 10:33:25;;;;;;;2.25;1.63;;;22.30;32.90;;;;;;5054088;28;20086;-79
2023/05/04 10:35:52;;;;;;;2.42;1.70;;;22.10;31.90;;;;;;5036357;28;20063;-80
2023/05/04 10:38:18;;;;;;;1.63;1.52;;;22.20;31.80;;;;;;5068362;28;20036;-76
2023/05/04 10:40:47;;;;;;;1.85;1.70;;;22.00;32.60;;;;;;5073737;28;20020;-80
2023/05/04 10:43:22;;;;;;;2.28;1.85;;;22.20;33.70;;;;;;5075960;28;20544;-83
2023/05/04 10:45:48;;;;;;;2.08;1.52;;;22.50;32.30;;;;;;5074904;28;20067;-77
2023/05/04 10:48:15;;;;;;;2.50;1.77;;;22.60;32.50;;;;;;5074299;28;20040;-79
2023/05/04 10:50:45;;;;;;;3.10;1.92;;;22.90;33.90;;;;;;5073591;28;20024;-79
2023/05/04 10:53:14;;;;;;;2.17;1.50;;;23.10;33.40;;;;;;5073240;28;20028;-79
2023/05/04 10:55:42;;;;;;;1.50;1.40;;;23.40;31.90;;;;;;5072770;28;20021;-76
2023/05/04 10:58:09;;;;;;;1.83;1.45;;;23.60;31.10;;;;;;5072867;28;20024;-79
2023/05/04 11:00:40;;;;;;;2.72;1.40;;;23.40;29.10;;;;;;5054937;28;20024;-79
2023/05/04 11:03:06;;;;;;;1.58;1.40;;;23.20;29.20;;;;;;5073164;28;20491;-79
2023/05/04 11:05:46;;;;;;;1.55;1.40;;;23.30;30.20;;;;;;5073085;28;20016;-79
2023/05/04 11:08:18;;;;;;;3.53;3.03;;;23.40;30.90;;;;;;5072969;28;20025;-77
2023/05/04 11:10:46;;;;;;;2.42;1.73;;;23.60;30.70;;;;;;5054901;28;20111;-75
2023/05/04 11:13:11;;;;;;;1.75;1.65;;;23.70;30.40;;;;;;5072923;28;20070;-78
2023/05/04 11:16:04;;;;;;;3.83;1.50;;;23.70;28.90;;;;;;5072562;28;20412;-75
2023/05/04 11:18:34;;;;;;;2.60;1.85;;;23.80;29.90;;;;;;5069020;28;20064;-74
2023/05/04 11:21:00;;;;;;;1.60;1.50;;;23.90;30.30;;;;;;5073125;28;20021;-86
2023/05/04 11:23:27;;;;;;;4.20;1.52;;;24.00;26.80;;;;;;5073379;28;20028;-74
2023/05/04 11:25:53;;;;;;;4.22;1.60;;;23.70;27.30;;;;;;5072845;28;20012;-75
2023/05/04 11:28:29;;;;;;;3.38;1.63;;;23.60;27.30;;;;;;5072775;28;20056;-75
2023/05/04 11:30:56;;;;;;;2.80;1.70;;;23.80;27.80;;;;;;5072784;28;20469;-75
2023/05/04 11:33:22;;;;;;;4.00;1.40;;;23.80;27.40;;;;;;5072477;28;20057;-80
2023/05/04 11:35:47;;;;;;;1.85;1.30;;;23.80;27.30;;;;;;5065377;28;20081;-75
2023/05/04 11:38:18;;;;;;;2.72;1.17;;;23.90;27.40;;;;;;5056936;28;20051;-78
2023/05/04 11:40:46;;;;;;;1.70;1.33;;;24.10;28.40;;;;;;5050391;28;20025;-76
2023/05/04 11:43:12;;;;;;;2.30;1.30;;;24.40;28.50;;;;;;5050140;28;20044;-76
2023/05/04 11:45:39;;;;;;;2.97;1.98;;;24.60;28.40;;;;;;5050682;28;20473;-77
2023/05/04 11:48:07;;;;;;;1.50;1.40;;;24.80;26.70;;;;;;5050934;28;20025;-76
2023/05/04 11:50:33;;;;;;;2.38;1.33;;;25.00;26.80;;;;;;5032677;28;20528;-75
2023/05/04 11:53:10;;;;;;;2.03;1.55;;;24.80;25.60;;;;;;5042564;28;20029;-81
2023/05/04 11:55:36;;;;;;;2.20;1.30;;;24.70;26.50;;;;;;5049673;28;20016;-76
2023/05/04 11:58:03;;;;;;;1.58;1.33;;;24.50;26.20;;;;;;5052604;28;20052;-76
2023/05/04 12:00:42;;;;;;;2.13;1.83;;;24.60;26.30;;;;;;5052577;28;20053;-79
2023/05/04 12:03:10;;;;;;;1.30;1.20;;;24.90;27.00;;;;;;5052769;28;20025;-76
2023/05/04 12:05:36;;;;;;;1.63;1.30;;;25.10;26.70;;;;;;5054422;28;20036;-76
2023/05/04 12:08:03;;;;;;;1.48;1.38;;;25.30;26.40;;;;;;5057520;28;20028;-74
2023/05/04 12:10:32;;;;;;;3.60;1.75;;;25.50;26.90;;;;;;5057338;28;20095;-75
2023/05/04 12:12:57;;;;;;;2.75;1.75;;;25.50;25.80;;;;;;5057311;28;20380;-76
2023/05/04 12:15:31;;;;;;;2.03;1.73;;;25.60;25.90;;;;;;5052684;28;20025;-79
2023/05/04 12:17:57;;;;;;;1.73;1.63;;;25.60;25.30;;;;;;5052659;28;20025;-77
2023/05/04 12:20:24;;;;;;;2.55;1.50;;;25.70;25.20;;;;;;5054032;28;20028;-74
2023/05/04 12:22:50;;;;;;;2.92;1.90;;;25.80;25.50;;;;;;5054332;28;20032;-75
2023/05/04 12:25:19;;;;;;;3.35;1.80;;;26.10;25.30;;;;;;5054719;28;20439;-81
2023/05/04 12:27:44;;;;;;;2.10;1.60;;;26.30;24.70;;;;;;5051718;28;20033;-83
2023/05/04 12:30:11;;;;;;;1.45;1.35;;;26.20;25.10;;;;;;5054982;28;20032;-77
2023/05/04 12:32:36;;;;;;;2.20;1.75;;;26.30;25.00;;;;;;5054502;28;20028;-74
2023/05/04 12:35:03;;;;;;;2.28;1.45;;;26.50;25.70;;;;;;5051575;28;20013;-75
2023/05/04 12:37:29;;;;;;;2.42;1.75;;;26.70;25.60;;;;;;5065212;28;20086;-77